sensor_id;sensor_type;location;lat;lon;timestamp;temperature;humidity
15967;DHT22;15175;48.154;11.534;2023-02-14T00:01:36;2.50;99.90
15967;DHT22;15175;48.154;11.534;2023-02-14T00:04:03;2.50;99.90
15967;DHT22;15175;48.154;11.534;2023-02-14T00:06:32;2.50;99.90
15967;DHT22;15175;48.154;11.534;2023-02-14T00:09:00;2.50;99.90
15967;DHT22;15175;48.154;11.534;2023-02-14T00:11:28;2.50;99.90
15967;DHT22;15175;48.154;11.534;2023-02-14T00:13:56;2.50;99.90
15967;DHT22;15175;48.154;11.534;2023-02-14T00:16:40;2.40;99.90
15967;DHT22;15175;48.154;11.534;2023-02-14T00:19:08;2.30;99.90
15967;DHT22;15175;48.154;11.534;2023-02-14T00:21:38;2.20;99.90
15967;DHT22;15175;48.154;11.534;2023-02-14T00:24:08;2.20;99.90
15967;DHT22;15175;48.154;11.534;2023-02-14T00:26:35;2.20;99.90
15967;DHT22;15175;48.154;11.534;2023-02-14T00:29:04;2.20;99.90
15967;DHT22;15175;48.154;11.534;2023-02-14T00:31:32;2.20;99.90
15967;DHT22;15175;48.154;11.534;2023-02-14T00:33:59;2.20;99.90
15967;DHT22;15175;48.154;11.534;2023-02-14T00:36:27;2.20;99.90
15967;DHT22;15175;48.154;11.534;2023-02-14T00:38:55;2.20;99.90
15967;DHT22;15175;48.154;11.534;2023-02-14T00:41:22;2.20;99.90
15967;DHT22;15175;48.154;11.534;2023-02-14T00:43:51;2.20;99.90
15967;DHT22;15175;48.154;11.534;2023-02-14T00:46:19;2.10;99.90
15967;DHT22;15175;48.154;11.534;2023-02-14T00:48:47;2.10;99.90
15967;DHT22;15175;48.154;11.534;2023-02-14T00:51:15;2.10;99.90
15967;DHT22;15175;48.154;11.534;2023-02-14T00:53:44;2.20;99.90
15967;DHT22;15175;48.154;11.534;2023-02-14T00:56:14;2.20;99.90
15967;DHT22;15175;48.154;11.534;2023-02-14T00:58:42;2.30;99.90
15967;DHT22;15175;48.154;11.534;2023-02-14T01:01:10;2.30;99.90
15967;DHT22;15175;48.154;11.534;2023-02-14T01:03:38;2.20;99.90
15967;DHT22;15175;48.154;11.534;2023-02-14T01:06:06;2.00;99.90
15967;DHT22;15175;48.154;11.534;2023-02-14T01:08:33;2.00;99.90
15967;DHT22;15175;48.154;11.534;2023-02-14T01:11:08;2.00;99.90
15967;DHT22;15175;48.154;11.534;2023-02-14T01:13:37;2.00;99.90
15967;DHT22;15175;48.154;11.534;2023-02-14T01:16:05;2.00;99.90
15967;DHT22;15175;48.154;11.534;2023-02-14T01:18:33;2.00;99.90
15967;DHT22;15175;48.154;11.534;2023-02-14T01:21:12;2.00;99.90
15967;DHT22;15175;48.154;11.534;2023-02-14T01:23:39;2.00;99.90
15967;DHT22;15175;48.154;11.534;2023-02-14T01:26:07;2.10;99.90
15967;DHT22;15175;48.154;11.534;2023-02-14T01:28:34;2.10;99.90
15967;DHT22;15175;48.154;11.534;2023-02-14T01:31:08;2.10;99.90
15967;DHT22;15175;48.154;11.534;2023-02-14T01:33:35;2.10;99.90
15967;DHT22;15175;48.154;11.534;2023-02-14T01:36:02;2.10;99.90
15967;DHT22;15175;48.154;11.534;2023-02-14T01:38:30;2.10;99.90
15967;DHT22;15175;48.154;11.534;2023-02-14T01:40:57;1.80;99.90
15967;DHT22;15175;48.154;11.534;2023-02-14T01:43:24;1.80;99.90
15967;DHT22;15175;48.154;11.534;2023-02-14T01:45:51;1.90;99.90
15967;DHT22;15175;48.154;11.534;2023-02-14T01:48:21;1.90;99.90
15967;DHT22;15175;48.154;11.534;2023-02-14T01:50:49;2.00;99.90
15967;DHT22;15175;48.154;11.534;2023-02-14T01:53:20;2.10;99.90
15967;DHT22;15175;48.154;11.534;2023-02-14T01:55:59;2.10;99.90
15967;DHT22;15175;48.154;11.534;2023-02-14T01:58:30;1.90;99.90
15967;DHT22;15175;48.154;11.534;2023-02-14T02:04:02;1.90;99.90
15967;DHT22;15175;48.154;11.534;2023-02-14T02:06:34;1.90;99.90
15967;DHT22;15175;48.154;11.534;2023-02-14T02:09:09;1.80;99.90
15967;DHT22;15175;48.154;11.534;2023-02-14T02:11:38;1.80;99.90
15967;DHT22;15175;48.154;11.534;2023-02-14T02:14:12;1.70;99.90
15967;DHT22;15175;48.154;11.534;2023-02-14T02:17:06;1.50;99.90
15967;DHT22;15175;48.154;11.534;2023-02-14T02:26:48;1.10;99.90
15967;DHT22;15175;48.154;11.534;2023-02-14T02:29:32;1.10;99.90
15967;DHT22;15175;48.154;11.534;2023-02-14T02:35:37;1.20;99.90
15967;DHT22;15175;48.154;11.534;2023-02-14T02:38:21;1.20;99.90
15967;DHT22;15175;48.154;11.534;2023-02-14T02:40:57;1.30;99.90
15967;DHT22;15175;48.154;11.534;2023-02-14T02:43:34;1.30;99.90
15967;DHT22;15175;48.154;11.534;2023-02-14T02:46:09;1.30;99.90
15967;DHT22;15175;48.154;11.534;2023-02-14T02:49:00;1.40;99.90
15967;DHT22;15175;48.154;11.534;2023-02-14T02:51:35;1.30;99.90
15967;DHT22;15175;48.154;11.534;2023-02-14T02:54:28;1.40;99.90
15967;DHT22;15175;48.154;11.534;2023-02-14T02:56:59;1.40;99.90
15967;DHT22;15175;48.154;11.534;2023-02-14T02:59:29;1.40;99.90
15967;DHT22;15175;48.154;11.534;2023-02-14T03:02:04;1.40;99.90
15967;DHT22;15175;48.154;11.534;2023-02-14T03:04:34;1.50;99.90
15967;DHT22;15175;48.154;11.534;2023-02-14T03:07:40;1.40;99.90
15967;DHT22;15175;48.154;11.534;2023-02-14T03:10:12;1.40;99.90
15967;DHT22;15175;48.154;11.534;2023-02-14T03:15:45;1.50;99.90
15967;DHT22;15175;48.154;11.534;2023-02-14T03:18:32;1.50;99.90
15967;DHT22;15175;48.154;11.534;2023-02-14T03:21:30;1.50;99.90
15967;DHT22;15175;48.154;11.534;2023-02-14T03:24:06;1.50;99.90
15967;DHT22;15175;48.154;11.534;2023-02-14T03:26:40;1.50;99.90
15967;DHT22;15175;48.154;11.534;2023-02-14T03:29:14;1.60;99.90
15967;DHT22;15175;48.154;11.534;2023-02-14T03:31:50;1.30;99.90
15967;DHT22;15175;48.154;11.534;2023-02-14T03:34:26;1.30;99.90
15967;DHT22;15175;48.154;11.534;2023-02-14T03:37:00;1.30;99.90
15967;DHT22;15175;48.154;11.534;2023-02-14T03:39:36;1.30;99.90
15967;DHT22;15175;48.154;11.534;2023-02-14T03:42:11;1.40;99.90
15967;DHT22;15175;48.154;11.534;2023-02-14T03:44:42;1.30;99.90
15967;DHT22;15175;48.154;11.534;2023-02-14T03:47:11;1.40;99.90
15967;DHT22;15175;48.154;11.534;2023-02-14T03:49:42;1.40;99.90
15967;DHT22;15175;48.154;11.534;2023-02-14T03:52:11;1.40;99.90
15967;DHT22;15175;48.154;11.534;2023-02-14T03:54:43;1.40;99.90
15967;DHT22;15175;48.154;11.534;2023-02-14T03:57:14;1.50;99.90
15967;DHT22;15175;48.154;11.534;2023-02-14T03:59:44;1.50;99.90
15967;DHT22;15175;48.154;11.534;2023-02-14T04:02:14;1.50;99.90
15967;DHT22;15175;48.154;11.534;2023-02-14T04:04:44;1.40;99.90
15967;DHT22;15175;48.154;11.534;2023-02-14T04:07:13;1.40;99.90
15967;DHT22;15175;48.154;11.534;2023-02-14T04:09:43;1.40;99.90
15967;DHT22;15175;48.154;11.534;2023-02-14T04:12:11;1.40;99.90
15967;DHT22;15175;48.154;11.534;2023-02-14T04:14:38;1.40;99.90
15967;DHT22;15175;48.154;11.534;2023-02-14T04:17:06;1.40;99.90
15967;DHT22;15175;48.154;11.534;2023-02-14T04:19:50;1.40;99.90
15967;DHT22;15175;48.154;11.534;2023-02-14T04:22:17;1.40;99.90
15967;DHT22;15175;48.154;11.534;2023-02-14T04:24:46;1.40;99.90
15967;DHT22;15175;48.154;11.534;2023-02-14T04:27:13;1.40;99.90
15967;DHT22;15175;48.154;11.534;2023-02-14T04:29:41;1.40;99.90
15967;DHT22;15175;48.154;11.534;2023-02-14T04:32:10;1.40;99.90
15967;DHT22;15175;48.154;11.534;2023-02-14T04:34:38;1.40;99.90
15967;DHT22;15175;48.154;11.534;2023-02-14T04:37:06;1.20;99.90
15967;DHT22;15175;48.154;11.534;2023-02-14T04:39:33;1.20;99.90
15967;DHT22;15175;48.154;11.534;2023-02-14T04:42:02;1.30;99.90
15967;DHT22;15175;48.154;11.534;2023-02-14T04:44:30;1.30;99.90
15967;DHT22;15175;48.154;11.534;2023-02-14T04:46:58;1.30;99.90
15967;DHT22;15175;48.154;11.534;2023-02-14T04:49:26;1.40;99.90
15967;DHT22;15175;48.154;11.534;2023-02-14T04:51:53;1.40;99.90
15967;DHT22;15175;48.154;11.534;2023-02-14T04:54:20;1.40;99.90
15967;DHT22;15175;48.154;11.534;2023-02-14T04:56:47;1.30;99.90
15967;DHT22;15175;48.154;11.534;2023-02-14T04:59:15;1.30;99.90
15967;DHT22;15175;48.154;11.534;2023-02-14T05:01:42;1.30;99.90
15967;DHT22;15175;48.154;11.534;2023-02-14T05:04:10;1.30;99.90
15967;DHT22;15175;48.154;11.534;2023-02-14T05:06:37;1.30;99.90
15967;DHT22;15175;48.154;11.534;2023-02-14T05:09:04;1.10;99.90
15967;DHT22;15175;48.154;11.534;2023-02-14T05:11:31;1.00;99.90
15967;DHT22;15175;48.154;11.534;2023-02-14T05:13:58;1.00;99.90
15967;DHT22;15175;48.154;11.534;2023-02-14T05:16:27;0.90;99.90
15967;DHT22;15175;48.154;11.534;2023-02-14T05:18:54;0.90;99.90
15967;DHT22;15175;48.154;11.534;2023-02-14T05:21:21;1.00;99.90
15967;DHT22;15175;48.154;11.534;2023-02-14T05:23:48;0.90;99.90
15967;DHT22;15175;48.154;11.534;2023-02-14T05:26:15;0.90;99.90
15967;DHT22;15175;48.154;11.534;2023-02-14T05:28:42;0.90;99.90
15967;DHT22;15175;48.154;11.534;2023-02-14T05:31:09;0.90;99.90
15967;DHT22;15175;48.154;11.534;2023-02-14T05:33:37;0.90;99.90
15967;DHT22;15175;48.154;11.534;2023-02-14T05:36:05;0.90;99.90
15967;DHT22;15175;48.154;11.534;2023-02-14T05:38:32;0.90;99.90
15967;DHT22;15175;48.154;11.534;2023-02-14T05:40:59;0.90;99.90
15967;DHT22;15175;48.154;11.534;2023-02-14T05:43:27;0.90;99.90
15967;DHT22;15175;48.154;11.534;2023-02-14T05:45:54;0.90;99.90
15967;DHT22;15175;48.154;11.534;2023-02-14T05:48:22;0.90;99.90
15967;DHT22;15175;48.154;11.534;2023-02-14T05:50:50;1.00;99.90
15967;DHT22;15175;48.154;11.534;2023-02-14T05:53:17;1.00;99.90
15967;DHT22;15175;48.154;11.534;2023-02-14T05:55:45;1.10;99.90
15967;DHT22;15175;48.154;11.534;2023-02-14T05:58:12;1.10;99.90
15967;DHT22;15175;48.154;11.534;2023-02-14T06:00:39;1.10;99.90
15967;DHT22;15175;48.154;11.534;2023-02-14T06:03:06;1.10;99.90
15967;DHT22;15175;48.154;11.534;2023-02-14T06:05:33;1.10;99.90
15967;DHT22;15175;48.154;11.534;2023-02-14T06:08:01;1.10;99.90
15967;DHT22;15175;48.154;11.534;2023-02-14T06:10:28;1.20;99.90
15967;DHT22;15175;48.154;11.534;2023-02-14T06:12:56;1.10;99.90
15967;DHT22;15175;48.154;11.534;2023-02-14T06:15:23;1.20;99.90
15967;DHT22;15175;48.154;11.534;2023-02-14T06:17:51;1.20;99.90
15967;DHT22;15175;48.154;11.534;2023-02-14T06:20:19;1.20;99.90
15967;DHT22;15175;48.154;11.534;2023-02-14T06:22:46;1.20;99.90
15967;DHT22;15175;48.154;11.534;2023-02-14T06:25:15;1.20;99.90
15967;DHT22;15175;48.154;11.534;2023-02-14T06:27:42;1.20;99.90
15967;DHT22;15175;48.154;11.534;2023-02-14T06:30:11;1.20;99.90
15967;DHT22;15175;48.154;11.534;2023-02-14T06:32:38;1.20;99.90
15967;DHT22;15175;48.154;11.534;2023-02-14T06:35:06;1.20;99.90
15967;DHT22;15175;48.154;11.534;2023-02-14T06:37:33;1.20;99.90
15967;DHT22;15175;48.154;11.534;2023-02-14T06:40:00;1.30;99.90
15967;DHT22;15175;48.154;11.534;2023-02-14T06:42:29;1.30;99.90
15967;DHT22;15175;48.154;11.534;2023-02-14T06:44:56;1.40;99.90
15967;DHT22;15175;48.154;11.534;2023-02-14T06:47:23;1.40;99.90
15967;DHT22;15175;48.154;11.534;2023-02-14T06:49:50;1.40;99.90
15967;DHT22;15175;48.154;11.534;2023-02-14T06:52:17;1.40;99.90
15967;DHT22;15175;48.154;11.534;2023-02-14T06:54:44;1.50;99.90
15967;DHT22;15175;48.154;11.534;2023-02-14T06:57:12;1.50;99.90
15967;DHT22;15175;48.154;11.534;2023-02-14T06:59:40;1.50;99.90
15967;DHT22;15175;48.154;11.534;2023-02-14T07:02:09;1.60;99.90
15967;DHT22;15175;48.154;11.534;2023-02-14T07:04:36;1.60;99.90
15967;DHT22;15175;48.154;11.534;2023-02-14T07:07:03;1.50;99.90
15967;DHT22;15175;48.154;11.534;2023-02-14T07:09:30;1.50;99.90
15967;DHT22;15175;48.154;11.534;2023-02-14T07:11:57;1.50;99.90
15967;DHT22;15175;48.154;11.534;2023-02-14T07:14:24;1.50;99.90
15967;DHT22;15175;48.154;11.534;2023-02-14T07:16:52;1.50;99.90
15967;DHT22;15175;48.154;11.534;2023-02-14T07:19:20;1.40;99.90
15967;DHT22;15175;48.154;11.534;2023-02-14T07:21:47;1.40;99.90
15967;DHT22;15175;48.154;11.534;2023-02-14T07:24:14;1.40;99.90
15967;DHT22;15175;48.154;11.534;2023-02-14T07:26:41;1.50;99.90
15967;DHT22;15175;48.154;11.534;2023-02-14T07:29:08;1.50;99.90
15967;DHT22;15175;48.154;11.534;2023-02-14T07:31:35;1.50;99.90
15967;DHT22;15175;48.154;11.534;2023-02-14T07:34:03;1.50;99.90
15967;DHT22;15175;48.154;11.534;2023-02-14T07:36:30;1.50;99.90
15967;DHT22;15175;48.154;11.534;2023-02-14T07:38:57;1.40;99.90
15967;DHT22;15175;48.154;11.534;2023-02-14T07:41:24;1.40;99.90
15967;DHT22;15175;48.154;11.534;2023-02-14T07:43:51;1.50;99.90
15967;DHT22;15175;48.154;11.534;2023-02-14T07:46:18;1.50;99.90
15967;DHT22;15175;48.154;11.534;2023-02-14T07:48:45;1.60;99.90
15967;DHT22;15175;48.154;11.534;2023-02-14T07:51:14;1.60;99.90
15967;DHT22;15175;48.154;11.534;2023-02-14T07:53:41;1.60;99.90
15967;DHT22;15175;48.154;11.534;2023-02-14T07:56:08;1.60;99.90
15967;DHT22;15175;48.154;11.534;2023-02-14T07:58:35;1.60;99.90
15967;DHT22;15175;48.154;11.534;2023-02-14T08:01:03;1.60;99.90
15967;DHT22;15175;48.154;11.534;2023-02-14T08:03:30;1.70;99.90
15967;DHT22;15175;48.154;11.534;2023-02-14T08:05:57;1.70;99.90
15967;DHT22;15175;48.154;11.534;2023-02-14T08:08:27;1.80;99.90
15967;DHT22;15175;48.154;11.534;2023-02-14T08:10:55;1.70;99.90
15967;DHT22;15175;48.154;11.534;2023-02-14T08:13:22;1.80;99.90
15967;DHT22;15175;48.154;11.534;2023-02-14T08:15:49;1.70;99.90
15967;DHT22;15175;48.154;11.534;2023-02-14T08:18:34;1.80;99.90
15967;DHT22;15175;48.154;11.534;2023-02-14T08:21:02;1.80;99.90
15967;DHT22;15175;48.154;11.534;2023-02-14T08:23:31;1.80;99.90
15967;DHT22;15175;48.154;11.534;2023-02-14T08:25:58;1.80;99.90
15967;DHT22;15175;48.154;11.534;2023-02-14T08:28:25;1.80;99.90
15967;DHT22;15175;48.154;11.534;2023-02-14T08:30:53;1.70;99.90
15967;DHT22;15175;48.154;11.534;2023-02-14T08:33:21;1.80;99.90
15967;DHT22;15175;48.154;11.534;2023-02-14T08:35:49;1.90;99.90
15967;DHT22;15175;48.154;11.534;2023-02-14T08:38:16;2.00;99.90
15967;DHT22;15175;48.154;11.534;2023-02-14T08:40:45;2.00;99.90
15967;DHT22;15175;48.154;11.534;2023-02-14T08:43:13;2.10;99.90
15967;DHT22;15175;48.154;11.534;2023-02-14T08:45:40;2.10;99.90
15967;DHT22;15175;48.154;11.534;2023-02-14T08:48:08;2.30;99.90
15967;DHT22;15175;48.154;11.534;2023-02-14T08:50:36;2.30;99.90
15967;DHT22;15175;48.154;11.534;2023-02-14T08:53:06;2.40;99.90
15967;DHT22;15175;48.154;11.534;2023-02-14T08:55:33;2.40;99.90
15967;DHT22;15175;48.154;11.534;2023-02-14T08:58:03;2.50;99.90
15967;DHT22;15175;48.154;11.534;2023-02-14T09:00:30;2.40;99.90
15967;DHT22;15175;48.154;11.534;2023-02-14T09:02:58;2.50;99.90
15967;DHT22;15175;48.154;11.534;2023-02-14T09:05:25;2.50;99.90
15967;DHT22;15175;48.154;11.534;2023-02-14T09:07:53;2.50;99.90
15967;DHT22;15175;48.154;11.534;2023-02-14T09:10:22;2.60;99.90
15967;DHT22;15175;48.154;11.534;2023-02-14T09:12:49;2.60;99.90
15967;DHT22;15175;48.154;11.534;2023-02-14T09:15:18;2.70;99.90
15967;DHT22;15175;48.154;11.534;2023-02-14T09:17:45;2.70;99.90
15967;DHT22;15175;48.154;11.534;2023-02-14T09:20:13;2.80;99.90
15967;DHT22;15175;48.154;11.534;2023-02-14T09:22:41;2.90;99.90
15967;DHT22;15175;48.154;11.534;2023-02-14T09:25:08;3.00;99.90
15967;DHT22;15175;48.154;11.534;2023-02-14T09:27:35;3.10;99.90
15967;DHT22;15175;48.154;11.534;2023-02-14T09:30:03;3.00;99.90
15967;DHT22;15175;48.154;11.534;2023-02-14T09:32:31;3.00;99.90
15967;DHT22;15175;48.154;11.534;2023-02-14T09:34:58;3.00;99.90
15967;DHT22;15175;48.154;11.534;2023-02-14T09:37:38;3.00;99.90
15967;DHT22;15175;48.154;11.534;2023-02-14T09:40:12;3.00;99.90
15967;DHT22;15175;48.154;11.534;2023-02-14T09:42:47;3.10;99.90
15967;DHT22;15175;48.154;11.534;2023-02-14T09:45:18;3.10;99.90
15967;DHT22;15175;48.154;11.534;2023-02-14T09:47:50;3.10;99.90
15967;DHT22;15175;48.154;11.534;2023-02-14T09:50:22;3.20;99.90
15967;DHT22;15175;48.154;11.534;2023-02-14T09:52:51;3.10;99.90
15967;DHT22;15175;48.154;11.534;2023-02-14T09:55:19;3.10;99.90
15967;DHT22;15175;48.154;11.534;2023-02-14T09:57:59;3.30;99.90
15967;DHT22;15175;48.154;11.534;2023-02-14T10:00:35;3.30;99.90
15967;DHT22;15175;48.154;11.534;2023-02-14T10:03:19;3.40;99.90
15967;DHT22;15175;48.154;11.534;2023-02-14T10:05:56;3.50;99.90
15967;DHT22;15175;48.154;11.534;2023-02-14T10:08:41;3.50;99.90
15967;DHT22;15175;48.154;11.534;2023-02-14T10:11:16;3.60;99.90
15967;DHT22;15175;48.154;11.534;2023-02-14T10:13:48;3.70;99.90
15967;DHT22;15175;48.154;11.534;2023-02-14T10:16:21;3.80;99.90
15967;DHT22;15175;48.154;11.534;2023-02-14T10:18:55;3.80;99.90
15967;DHT22;15175;48.154;11.534;2023-02-14T10:21:26;3.80;99.90
15967;DHT22;15175;48.154;11.534;2023-02-14T10:23:59;3.80;99.90
15967;DHT22;15175;48.154;11.534;2023-02-14T10:26:32;3.80;99.90
15967;DHT22;15175;48.154;11.534;2023-02-14T10:29:03;3.90;99.90
15967;DHT22;15175;48.154;11.534;2023-02-14T10:31:37;3.90;99.90
15967;DHT22;15175;48.154;11.534;2023-02-14T10:34:14;4.00;99.90
15967;DHT22;15175;48.154;11.534;2023-02-14T10:36:59;4.00;99.90
15967;DHT22;15175;48.154;11.534;2023-02-14T10:39:41;4.10;99.90
15967;DHT22;15175;48.154;11.534;2023-02-14T10:42:22;4.10;99.90
15967;DHT22;15175;48.154;11.534;2023-02-14T10:44:57;4.10;99.90
15967;DHT22;15175;48.154;11.534;2023-02-14T10:47:35;4.20;99.90
15967;DHT22;15175;48.154;11.534;2023-02-14T10:50:13;4.20;99.90
15967;DHT22;15175;48.154;11.534;2023-02-14T10:52:49;4.20;99.90
15967;DHT22;15175;48.154;11.534;2023-02-14T10:55:21;4.30;99.90
15967;DHT22;15175;48.154;11.534;2023-02-14T10:57:53;4.30;99.90
15967;DHT22;15175;48.154;11.534;2023-02-14T11:00:23;4.30;99.90
15967;DHT22;15175;48.154;11.534;2023-02-14T11:02:56;4.50;99.90
15967;DHT22;15175;48.154;11.534;2023-02-14T11:05:30;4.40;99.90
15967;DHT22;15175;48.154;11.534;2023-02-14T11:07:59;4.40;99.90
15967;DHT22;15175;48.154;11.534;2023-02-14T11:10:30;4.50;99.90
15967;DHT22;15175;48.154;11.534;2023-02-14T11:12:57;4.50;99.90
15967;DHT22;15175;48.154;11.534;2023-02-14T11:15:27;4.50;99.90
15967;DHT22;15175;48.154;11.534;2023-02-14T11:18:16;4.60;99.90
15967;DHT22;15175;48.154;11.534;2023-02-14T11:20:58;4.60;99.90
15967;DHT22;15175;48.154;11.534;2023-02-14T11:23:25;4.60;99.90
15967;DHT22;15175;48.154;11.534;2023-02-14T11:25:54;4.60;99.90
15967;DHT22;15175;48.154;11.534;2023-02-14T11:28:22;4.70;99.90
15967;DHT22;15175;48.154;11.534;2023-02-14T11:30:49;4.70;99.90
15967;DHT22;15175;48.154;11.534;2023-02-14T11:33:33;4.80;99.90
15967;DHT22;15175;48.154;11.534;2023-02-14T11:36:09;4.80;99.90
15967;DHT22;15175;48.154;11.534;2023-02-14T11:38:39;4.90;99.90
15967;DHT22;15175;48.154;11.534;2023-02-14T11:41:08;4.90;99.90
15967;DHT22;15175;48.154;11.534;2023-02-14T11:43:37;4.90;99.90
15967;DHT22;15175;48.154;11.534;2023-02-14T11:46:26;4.90;99.90
15967;DHT22;15175;48.154;11.534;2023-02-14T11:48:57;4.90;99.90
15967;DHT22;15175;48.154;11.534;2023-02-14T11:51:30;4.90;99.90
15967;DHT22;15175;48.154;11.534;2023-02-14T11:54:00;5.00;99.90
15967;DHT22;15175;48.154;11.534;2023-02-14T11:56:48;5.00;99.90
15967;DHT22;15175;48.154;11.534;2023-02-14T11:59:28;5.00;99.90
15967;DHT22;15175;48.154;11.534;2023-02-14T12:01:57;5.10;99.90
15967;DHT22;15175;48.154;11.534;2023-02-14T12:04:31;5.10;99.90
15967;DHT22;15175;48.154;11.534;2023-02-14T12:07:18;5.10;99.90
15967;DHT22;15175;48.154;11.534;2023-02-14T12:09:47;5.10;99.90
15967;DHT22;15175;48.154;11.534;2023-02-14T12:12:18;5.10;99.90
15967;DHT22;15175;48.154;11.534;2023-02-14T12:14:45;5.10;99.90
15967;DHT22;15175;48.154;11.534;2023-02-14T12:17:29;5.10;99.90
15967;DHT22;15175;48.154;11.534;2023-02-14T12:20:03;5.10;99.90
15967;DHT22;15175;48.154;11.534;2023-02-14T12:22:40;5.20;99.90
15967;DHT22;15175;48.154;11.534;2023-02-14T12:25:14;5.10;99.90
15967;DHT22;15175;48.154;11.534;2023-02-14T12:27:46;5.20;99.90
15967;DHT22;15175;48.154;11.534;2023-02-14T12:30:16;5.20;99.90
15967;DHT22;15175;48.154;11.534;2023-02-14T12:32:47;5.30;99.90
15967;DHT22;15175;48.154;11.534;2023-02-14T12:35:16;5.30;99.90
15967;DHT22;15175;48.154;11.534;2023-02-14T12:37:58;5.40;99.90
15967;DHT22;15175;48.154;11.534;2023-02-14T12:40:38;5.40;99.90
15967;DHT22;15175;48.154;11.534;2023-02-14T12:43:41;5.40;99.90
15967;DHT22;15175;48.154;11.534;2023-02-14T12:46:20;5.50;99.90
15967;DHT22;15175;48.154;11.534;2023-02-14T12:49:07;5.40;99.90
15967;DHT22;15175;48.154;11.534;2023-02-14T12:51:42;5.50;99.90
15967;DHT22;15175;48.154;11.534;2023-02-14T12:54:28;5.50;99.90
15967;DHT22;15175;48.154;11.534;2023-02-14T12:57:03;5.60;99.90
15967;DHT22;15175;48.154;11.534;2023-02-14T12:59:41;5.60;99.90
15967;DHT22;15175;48.154;11.534;2023-02-14T13:05:20;5.90;99.90
15967;DHT22;15175;48.154;11.534;2023-02-14T13:08:04;6.10;99.90
15967;DHT22;15175;48.154;11.534;2023-02-14T13:10:48;6.30;99.90
15967;DHT22;15175;48.154;11.534;2023-02-14T13:13:24;6.60;99.90
15967;DHT22;15175;48.154;11.534;2023-02-14T13:16:00;6.80;99.90
15967;DHT22;15175;48.154;11.534;2023-02-14T13:18:38;6.90;99.90
15967;DHT22;15175;48.154;11.534;2023-02-14T13:21:10;7.20;99.90
15967;DHT22;15175;48.154;11.534;2023-02-14T13:23:42;7.30;99.90
15967;DHT22;15175;48.154;11.534;2023-02-14T13:26:14;7.60;99.90
15967;DHT22;15175;48.154;11.534;2023-02-14T13:28:48;7.80;99.90
15967;DHT22;15175;48.154;11.534;2023-02-14T13:31:17;8.10;99.90
15967;DHT22;15175;48.154;11.534;2023-02-14T13:33:48;8.30;99.90
15967;DHT22;15175;48.154;11.534;2023-02-14T13:36:17;8.20;99.90
15967;DHT22;15175;48.154;11.534;2023-02-14T13:38:47;8.30;99.90
15967;DHT22;15175;48.154;11.534;2023-02-14T13:41:16;8.30;99.90
15967;DHT22;15175;48.154;11.534;2023-02-14T13:43:49;8.40;99.90
15967;DHT22;15175;48.154;11.534;2023-02-14T13:46:20;8.30;99.90
15967;DHT22;15175;48.154;11.534;2023-02-14T13:48:59;8.40;99.90
15967;DHT22;15175;48.154;11.534;2023-02-14T13:51:43;8.40;99.90
15967;DHT22;15175;48.154;11.534;2023-02-14T13:54:39;8.50;99.90
15967;DHT22;15175;48.154;11.534;2023-02-14T13:57:26;8.40;99.90
15967;DHT22;15175;48.154;11.534;2023-02-14T14:00:22;8.40;99.90
15967;DHT22;15175;48.154;11.534;2023-02-14T14:02:50;8.40;99.90
15967;DHT22;15175;48.154;11.534;2023-02-14T14:08:41;8.60;99.90
15967;DHT22;15175;48.154;11.534;2023-02-14T14:13:59;8.70;99.90
15967;DHT22;15175;48.154;11.534;2023-02-14T14:16:29;8.70;99.90
15967;DHT22;15175;48.154;11.534;2023-02-14T14:18:58;8.60;99.90
15967;DHT22;15175;48.154;11.534;2023-02-14T14:21:27;8.50;99.90
15967;DHT22;15175;48.154;11.534;2023-02-14T14:24:16;8.50;99.90
15967;DHT22;15175;48.154;11.534;2023-02-14T14:26:47;8.60;99.90
15967;DHT22;15175;48.154;11.534;2023-02-14T14:29:18;8.70;99.90
15967;DHT22;15175;48.154;11.534;2023-02-14T14:31:48;8.60;99.90
15967;DHT22;15175;48.154;11.534;2023-02-14T14:34:21;8.50;99.90
15967;DHT22;15175;48.154;11.534;2023-02-14T14:36:49;8.00;99.90
15967;DHT22;15175;48.154;11.534;2023-02-14T14:39:27;8.10;99.90
15967;DHT22;15175;48.154;11.534;2023-02-14T14:41:56;8.00;99.90
15967;DHT22;15175;48.154;11.534;2023-02-14T14:44:31;8.00;99.90
15967;DHT22;15175;48.154;11.534;2023-02-14T14:47:00;8.00;99.90
15967;DHT22;15175;48.154;11.534;2023-02-14T14:49:28;7.70;99.90
15967;DHT22;15175;48.154;11.534;2023-02-14T14:51:56;7.50;99.90
15967;DHT22;15175;48.154;11.534;2023-02-14T14:54:23;7.20;99.90
15967;DHT22;15175;48.154;11.534;2023-02-14T14:56:54;7.00;99.90
15967;DHT22;15175;48.154;11.534;2023-02-14T14:59:29;6.80;99.90
15967;DHT22;15175;48.154;11.534;2023-02-14T15:01:58;6.70;99.90
15967;DHT22;15175;48.154;11.534;2023-02-14T15:04:26;6.50;99.90
15967;DHT22;15175;48.154;11.534;2023-02-14T15:06:54;6.40;99.90
15967;DHT22;15175;48.154;11.534;2023-02-14T15:09:29;6.50;99.90
15967;DHT22;15175;48.154;11.534;2023-02-14T15:11:58;6.50;99.90
15967;DHT22;15175;48.154;11.534;2023-02-14T15:14:46;6.40;99.90
15967;DHT22;15175;48.154;11.534;2023-02-14T15:17:23;6.40;99.90
15967;DHT22;15175;48.154;11.534;2023-02-14T15:19:53;6.40;99.90
15967;DHT22;15175;48.154;11.534;2023-02-14T15:22:24;6.50;99.90
15967;DHT22;15175;48.154;11.534;2023-02-14T15:24:52;6.50;99.90
15967;DHT22;15175;48.154;11.534;2023-02-14T15:27:21;6.50;99.90
15967;DHT22;15175;48.154;11.534;2023-02-14T15:29:54;6.60;99.90
15967;DHT22;15175;48.154;11.534;2023-02-14T15:32:25;6.60;99.90
15967;DHT22;15175;48.154;11.534;2023-02-14T15:34:54;6.60;99.90
15967;DHT22;15175;48.154;11.534;2023-02-14T15:37:23;6.60;99.90
15967;DHT22;15175;48.154;11.534;2023-02-14T15:39:52;6.60;99.90
15967;DHT22;15175;48.154;11.534;2023-02-14T15:42:23;6.60;99.90
15967;DHT22;15175;48.154;11.534;2023-02-14T15:45:19;6.60;99.90
15967;DHT22;15175;48.154;11.534;2023-02-14T15:47:51;6.50;99.90
15967;DHT22;15175;48.154;11.534;2023-02-14T15:50:21;6.50;99.90
15967;DHT22;15175;48.154;11.534;2023-02-14T15:52:53;6.50;99.90
15967;DHT22;15175;48.154;11.534;2023-02-14T15:55:23;6.40;99.90
15967;DHT22;15175;48.154;11.534;2023-02-14T15:57:54;6.30;99.90
15967;DHT22;15175;48.154;11.534;2023-02-14T16:00:23;6.30;99.90
15967;DHT22;15175;48.154;11.534;2023-02-14T16:02:55;6.20;99.90
15967;DHT22;15175;48.154;11.534;2023-02-14T16:05:26;6.20;99.90
15967;DHT22;15175;48.154;11.534;2023-02-14T16:07:58;6.10;99.90
15967;DHT22;15175;48.154;11.534;2023-02-14T16:10:27;6.00;99.90
15967;DHT22;15175;48.154;11.534;2023-02-14T16:12:59;5.80;99.90
15967;DHT22;15175;48.154;11.534;2023-02-14T16:15:28;5.80;99.90
15967;DHT22;15175;48.154;11.534;2023-02-14T16:17:56;5.80;99.90
15967;DHT22;15175;48.154;11.534;2023-02-14T16:20:37;5.70;99.90
15967;DHT22;15175;48.154;11.534;2023-02-14T16:23:20;5.80;99.90